Time;durP1;ratioP1;P1;durP2;ratioP2;P2;SDS_P1;SDS_P2;PMS_P1;PMS_P2;Temp;Humidity;BMP_temperature;BMP_pressure;BME280_temperature;BME280_humidity;BME280_pressure;Samples;Min_cycle;Max_cycle;Signal;HPM_P1;HPM_P2
2023/07/25 00:00:11;;;;;;;10.75;3.50;;;12.70;99.90;;;;;;5017161;28;20060;-79
2023/07/25 00:02:37;;;;;;;7.45;2.35;;;12.70;99.90;;;;;;5015101;28;20418;-80
2023/07/25 00:05:03;;;;;;;8.95;2.38;;;12.60;99.90;;;;;;5003818;28;20054;-80
2023/07/25 00:07:29;;;;;;;5.78;1.90;;;12.70;99.90;;;;;;5001674;28;20042;-80
2023/07/25 00:09:56;;;;;;;7.68;2.42;;;12.70;99.90;;;;;;5003752;28;20034;-80
2023/07/25 00:12:22;;;;;;;6.97;2.40;;;12.70;99.90;;;;;;5005992;28;20074;-79
2023/07/25 00:14:48;;;;;;;4.45;2.63;;;12.60;99.90;;;;;;5004395;28;20120;-80
2023/07/25 00:17:14;;;;;;;8.93;2.85;;;12.80;99.90;;;;;;5001879;28;20121;-80
2023/07/25 00:19:39;;;;;;;5.80;2.17;;;13.00;99.90;;;;;;4984544;28;20046;-80
2023/07/25 00:22:05;;;;;;;5.22;2.60;;;12.80;99.90;;;;;;5004378;28;20050;-80
2023/07/25 00:24:31;;;;;;;9.23;2.47;;;12.70;99.90;;;;;;5005750;28;20042;-80
2023/07/25 00:26:56;;;;;;;10.27;2.70;;;12.70;99.90;;;;;;5005869;28;20682;-80
2023/07/25 00:29:22;;;;;;;10.85;2.58;;;12.60;99.90;;;;;;5004786;28;20456;-80
2023/07/25 00:31:48;;;;;;;10.13;2.83;;;12.60;99.90;;;;;;4988124;28;20092;-80
2023/07/25 00:34:14;;;;;;;5.75;2.33;;;12.60;99.90;;;;;;5000572;28;20366;-80
2023/07/25 00:36:40;;;;;;;4.72;1.98;;;13.00;99.90;;;;;;4997112;28;20084;-80
2023/07/25 00:39:06;;;;;;;13.85;2.95;;;12.60;99.90;;;;;;5006144;28;20038;-80
2023/07/25 00:41:31;;;;;;;9.88;2.47;;;12.60;99.90;;;;;;5001959;28;20035;-80
2023/07/25 00:43:57;;;;;;;7.95;2.58;;;12.60;99.90;;;;;;4984653;28;20038;-80
2023/07/25 00:46:23;;;;;;;10.43;2.78;;;12.60;99.90;;;;;;5000424;28;20061;-80
2023/07/25 00:48:48;;;;;;;9.00;3.15;;;12.50;99.90;;;;;;5001158;28;20043;-80
2023/07/25 00:51:15;;;;;;;9.30;3.17;;;12.70;99.90;;;;;;5004079;28;20088;-80
2023/07/25 00:53:41;;;;;;;9.27;2.45;;;12.50;99.90;;;;;;5004805;28;20049;-80
2023/07/25 00:56:09;;;;;;;6.45;2.13;;;12.60;99.90;;;;;;5001713;28;20050;-80
2023/07/25 00:58:34;;;;;;;11.57;2.67;;;12.50;99.90;;;;;;5007382;28;20038;-80
2023/07/25 01:01:04;;;;;;;8.65;3.25;;;12.50;99.90;;;;;;4984859;28;20141;-80
2023/07/25 01:03:32;;;;;;;14.07;3.17;;;12.60;99.90;;;;;;5000688;28;20034;-80
2023/07/25 01:06:04;;;;;;;9.52;2.83;;;12.50;99.90;;;;;;4985619;28;20132;-79
2023/07/25 01:08:29;;;;;;;9.10;2.30;;;12.60;99.90;;;;;;5004835;28;20042;-80
2023/07/25 01:10:55;;;;;;;6.22;2.05;;;13.20;99.90;;;;;;4995800;28;20049;-80
2023/07/25 01:13:21;;;;;;;5.45;2.78;;;12.60;99.90;;;;;;5000591;28;20137;-80
2023/07/25 01:15:51;;;;;;;8.80;2.50;;;12.60;99.90;;;;;;5001381;28;20451;-80
2023/07/25 01:18:18;;;;;;;8.48;2.55;;;12.60;99.90;;;;;;4992104;28;20066;-79
2023/07/25 01:20:47;;;;;;;7.10;1.90;;;12.60;99.90;;;;;;5000900;28;20052;-80
2023/07/25 01:23:13;;;;;;;7.93;2.05;;;12.70;99.90;;;;;;5003866;28;20528;-80
2023/07/25 01:25:39;;;;;;;11.30;2.38;;;12.70;99.90;;;;;;5004116;28;20038;-79
2023/07/25 01:28:05;;;;;;;8.55;2.30;;;12.70;99.90;;;;;;4985890;28;20038;-80
2023/07/25 01:30:31;;;;;;;9.10;2.22;;;13.10;99.90;;;;;;5015886;28;20046;-79
2023/07/25 01:32:56;;;;;;;8.10;2.88;;;12.70;99.90;;;;;;5009248;28;20035;-80
2023/07/25 01:35:22;;;;;;;6.50;2.35;;;12.70;99.90;;;;;;5004586;28;20038;-80
2023/07/25 01:37:48;;;;;;;7.57;3.03;;;12.70;99.90;;;;;;5004084;28;20049;-80
2023/07/25 01:40:14;;;;;;;8.48;2.88;;;13.00;99.90;;;;;;5000599;28;20046;-80
2023/07/25 01:42:39;;;;;;;7.45;2.67;;;12.70;99.90;;;;;;5001052;28;20113;-80
2023/07/25 01:45:06;;;;;;;8.90;3.10;;;12.70;99.90;;;;;;5002253;28;20045;-80
2023/07/25 01:47:31;;;;;;;8.70;2.08;;;12.70;99.90;;;;;;5003071;28;20041;-80
2023/07/25 01:49:57;;;;;;;8.38;2.65;;;12.70;99.90;;;;;;5003328;28;20038;-80
2023/07/25 01:52:22;;;;;;;6.05;3.08;;;12.70;99.90;;;;;;5000506;28;20049;-80
2023/07/25 01:54:49;;;;;;;8.20;2.85;;;12.70;99.90;;;;;;4982926;28;20473;-81
2023/07/25 01:57:15;;;;;;;7.75;2.80;;;12.70;99.90;;;;;;5000504;28;20414;-80
2023/07/25 01:59:41;;;;;;;9.32;3.38;;;12.70;99.90;;;;;;4999760;28;20129;-80
2023/07/25 02:02:07;;;;;;;8.80;2.97;;;12.70;99.90;;;;;;5002107;28;20559;-80
2023/07/25 02:04:33;;;;;;;6.80;2.88;;;12.70;99.90;;;;;;5003863;28;20109;-80
2023/07/25 02:06:58;;;;;;;6.40;2.92;;;12.70;99.90;;;;;;5002106;28;20438;-80
2023/07/25 02:09:24;;;;;;;8.93;2.70;;;12.70;99.90;;;;;;5000703;28;20049;-80
2023/07/25 02:11:50;;;;;;;10.38;2.70;;;12.70;99.90;;;;;;4982823;28;20034;-80
2023/07/25 02:14:15;;;;;;;10.75;2.65;;;12.80;99.90;;;;;;5002198;28;20058;-79
2023/07/25 02:16:41;;;;;;;7.60;2.75;;;12.70;99.90;;;;;;5003754;28;20397;-80
2023/07/25 02:19:07;;;;;;;10.52;2.97;;;13.70;99.90;;;;;;5001930;28;20042;-80
2023/07/25 02:21:33;;;;;;;11.57;3.53;;;12.80;99.90;;;;;;5000985;28;20077;-80
2023/07/25 02:23:59;;;;;;;14.70;3.05;;;12.70;99.90;;;;;;5010421;28;20058;-80
2023/07/25 02:26:25;;;;;;;8.15;3.13;;;12.70;99.90;;;;;;5010543;28;20038;-80
2023/07/25 02:28:50;;;;;;;10.65;2.42;;;13.00;99.90;;;;;;4995996;28;20072;-80
2023/07/25 02:31:16;;;;;;;8.90;2.75;;;12.70;99.90;;;;;;5002416;28;20096;-80
2023/07/25 02:33:41;;;;;;;6.35;2.53;;;12.70;99.90;;;;;;5003290;28;20088;-80
2023/07/25 02:36:07;;;;;;;8.15;2.83;;;12.80;99.90;;;;;;5001741;28;20046;-80
2023/07/25 02:38:33;;;;;;;8.43;2.63;;;12.80;99.90;;;;;;5000081;28;20155;-80
2023/07/25 02:40:58;;;;;;;8.02;2.50;;;12.70;99.90;;;;;;4982737;28;20217;-80
2023/07/25 02:43:24;;;;;;;10.70;3.05;;;12.80;99.90;;;;;;5002463;28;20042;-80
2023/07/25 02:45:51;;;;;;;5.43;2.28;;;12.80;99.90;;;;;;5003808;28;20532;-80
2023/07/25 02:48:17;;;;;;;9.70;3.05;;;12.80;99.90;;;;;;5000883;28;20042;-80
2023/07/25 02:50:42;;;;;;;9.13;2.88;;;12.80;99.90;;;;;;4999677;28;20038;-80
2023/07/25 02:53:08;;;;;;;9.75;3.03;;;14.00;99.90;;;;;;5008286;28;20128;-80
2023/07/25 02:55:33;;;;;;;15.52;2.53;;;12.80;99.90;;;;;;4995730;28;20478;-80
2023/07/25 02:57:59;;;;;;;7.40;2.38;;;13.70;99.90;;;;;;5003190;28;20096;-80
2023/07/25 03:00:25;;;;;;;11.98;2.42;;;13.70;99.90;;;;;;5012113;28;20048;-79
2023/07/25 03:02:51;;;;;;;9.45;2.53;;;13.30;99.90;;;;;;4992278;28;20108;-80
2023/07/25 03:05:17;;;;;;;8.75;2.05;;;12.80;99.90;;;;;;5002367;28;20394;-80
2023/07/25 03:07:43;;;;;;;14.20;2.53;;;12.90;99.90;;;;;;5002831;28;20034;-80
2023/07/25 03:10:09;;;;;;;10.13;3.25;;;12.90;99.90;;;;;;4985001;28;20050;-80
2023/07/25 03:12:34;;;;;;;13.50;3.28;;;12.90;99.90;;;;;;5003196;28;20138;-80
2023/07/25 03:15:00;;;;;;;13.77;4.18;;;13.00;99.90;;;;;;4985440;28;20115;-80
2023/07/25 03:17:26;;;;;;;11.23;3.10;;;13.00;99.90;;;;;;4999192;28;20132;-80
2023/07/25 03:19:52;;;;;;;7.85;3.22;;;13.00;99.90;;;;;;4999596;28;20078;-80
2023/07/25 03:22:19;;;;;;;11.20;2.40;;;13.00;99.90;;;;;;5001490;28;20501;-80
2023/07/25 03:24:44;;;;;;;6.38;2.65;;;13.00;99.90;;;;;;5000439;28;20478;-80
2023/07/25 03:27:10;;;;;;;16.52;2.88;;;13.10;99.90;;;;;;4985937;28;20050;-80
2023/07/25 03:29:36;;;;;;;11.27;2.47;;;13.10;99.90;;;;;;4985189;28;20045;-80
2023/07/25 03:32:01;;;;;;;9.75;2.55;;;13.10;99.90;;;;;;5002388;28;20054;-80
2023/07/25 03:34:28;;;;;;;7.43;2.38;;;13.10;99.90;;;;;;5005949;28;20452;-80
2023/07/25 03:36:54;;;;;;;8.73;2.25;;;13.10;99.90;;;;;;4988410;28;20053;-80
2023/07/25 03:39:20;;;;;;;8.65;2.40;;;13.00;99.90;;;;;;4988105;28;20397;-80
2023/07/25 03:41:45;;;;;;;12.98;2.65;;;13.00;99.90;;;;;;4972988;28;20085;-80
2023/07/25 03:44:17;;;;;;;6.20;2.35;;;13.10;99.90;;;;;;5005918;28;20497;-80
2023/07/25 03:46:44;;;;;;;10.27;2.50;;;13.00;99.90;;;;;;5002406;28;20407;-80
2023/07/25 03:49:10;;;;;;;14.25;2.83;;;13.00;99.90;;;;;;5003329;28;20050;-80
2023/07/25 03:51:36;;;;;;;6.55;2.33;;;13.00;99.90;;;;;;5005883;28;20085;-80
2023/07/25 03:54:03;;;;;;;7.13;1.70;;;13.00;99.90;;;;;;4987660;28;20041;-80
2023/07/25 03:56:28;;;;;;;7.78;1.92;;;13.00;99.90;;;;;;5004652;28;20046;-80
2023/07/25 03:58:54;;;;;;;5.07;1.92;;;13.00;99.90;;;;;;4984773;28;20042;-80
2023/07/25 04:01:20;;;;;;;7.85;2.03;;;12.90;99.90;;;;;;5013259;28;20402;-81
2023/07/25 04:03:45;;;;;;;7.65;2.08;;;12.90;99.90;;;;;;5003983;28;20065;-80
2023/07/25 04:06:11;;;;;;;13.80;2.40;;;12.90;99.90;;;;;;5002847;28;20457;-80
2023/07/25 04:08:37;;;;;;;7.15;2.28;;;12.90;99.90;;;;;;5005612;28;20096;-80
2023/07/25 04:11:04;;;;;;;8.25;1.73;;;12.90;99.90;;;;;;4998916;28;20052;-80
2023/07/25 04:13:29;;;;;;;8.48;2.10;;;12.90;99.90;;;;;;4994784;28;20046;-80
2023/07/25 04:15:55;;;;;;;8.35;1.70;;;12.80;99.90;;;;;;4989563;28;20033;-81
2023/07/25 04:18:21;;;;;;;10.77;2.97;;;12.80;99.90;;;;;;5007909;28;20038;-80
2023/07/25 04:20:46;;;;;;;4.00;1.80;;;12.80;99.90;;;;;;4985027;28;20568;-80
2023/07/25 04:23:14;;;;;;;10.15;2.25;;;12.80;99.90;;;;;;5011704;28;20049;-80
2023/07/25 04:25:40;;;;;;;6.70;1.60;;;12.80;99.90;;;;;;4985828;28;20045;-81
2023/07/25 04:28:06;;;;;;;5.50;1.60;;;12.70;99.90;;;;;;4993417;28;20125;-81
2023/07/25 04:30:32;;;;;;;5.72;1.88;;;12.70;99.90;;;;;;5016460;28;20038;-81
2023/07/25 04:32:57;;;;;;;9.10;2.25;;;12.60;99.90;;;;;;4996822;28;20561;-81
2023/07/25 04:35:23;;;;;;;4.80;1.65;;;12.90;99.90;;;;;;5002280;28;20086;-81
2023/07/25 04:37:49;;;;;;;9.07;1.60;;;12.60;99.90;;;;;;5005894;28;20038;-81
2023/07/25 04:40:14;;;;;;;6.35;2.05;;;12.60;99.90;;;;;;4990661;28;20045;-81
2023/07/25 04:42:42;;;;;;;8.05;1.70;;;12.60;99.90;;;;;;5006348;28;20042;-81
2023/07/25 04:45:08;;;;;;;7.60;1.42;;;12.60;99.90;;;;;;4972174;28;20053;-81
2023/07/25 04:47:34;;;;;;;12.05;2.00;;;12.60;99.90;;;;;;5003338;28;20506;-79
2023/07/25 04:50:00;;;;;;;12.98;2.08;;;12.60;99.90;;;;;;5001392;28;20048;-80
2023/07/25 04:52:26;;;;;;;6.82;1.90;;;12.60;99.90;;;;;;5003668;28;20425;-80
2023/07/25 04:54:55;;;;;;;8.48;1.95;;;12.60;99.90;;;;;;5002516;28;20038;-80
2023/07/25 04:57:21;;;;;;;8.43;1.60;;;12.60;99.90;;;;;;5003241;28;20439;-81
2023/07/25 04:59:47;;;;;;;6.65;2.17;;;12.60;99.90;;;;;;5007446;28;20093;-80
2023/07/25 05:02:14;;;;;;;7.90;1.83;;;12.60;99.90;;;;;;5005755;28;20560;-80
2023/07/25 05:04:40;;;;;;;10.13;2.03;;;12.60;99.90;;;;;;4984010;28;20044;-80
2023/07/25 05:07:05;;;;;;;10.00;1.75;;;12.60;99.90;;;;;;4983349;28;20045;-80
2023/07/25 05:09:31;;;;;;;8.48;1.35;;;12.60;99.90;;;;;;4985223;28;20486;-81
2023/07/25 05:11:57;;;;;;;3.10;1.48;;;12.60;99.90;;;;;;4987451;28;20033;-80
2023/07/25 05:14:23;;;;;;;5.25;1.52;;;12.60;99.90;;;;;;5003936;28;20102;-80
2023/07/25 05:16:48;;;;;;;9.35;1.73;;;12.70;99.90;;;;;;5000514;28;20122;-80
2023/07/25 05:19:14;;;;;;;8.73;1.67;;;12.80;99.90;;;;;;5000973;28;20058;-80
2023/07/25 05:21:40;;;;;;;9.30;2.13;;;12.80;99.90;;;;;;5007220;28;20034;-81
2023/07/25 05:24:06;;;;;;;10.30;1.52;;;12.80;99.90;;;;;;5005768;28;20037;-79
2023/07/25 05:26:31;;;;;;;10.93;1.65;;;13.10;99.90;;;;;;5005144;28;20117;-80
2023/07/25 05:28:57;;;;;;;17.40;2.30;;;12.90;99.90;;;;;;4983825;28;20049;-80
2023/07/25 05:31:22;;;;;;;8.70;2.20;;;12.90;99.90;;;;;;5008696;28;20076;-80
2023/07/25 05:33:48;;;;;;;8.43;2.05;;;13.00;99.90;;;;;;5001010;28;20177;-80
2023/07/25 05:36:14;;;;;;;9.60;1.88;;;13.20;99.90;;;;;;4967530;28;20046;-80
2023/07/25 05:38:39;;;;;;;14.88;5.13;;;13.00;99.90;;;;;;4997979;28;20042;-81
2023/07/25 05:41:07;;;;;;;9.07;2.65;;;13.00;99.90;;;;;;5004786;28;20044;-79
2023/07/25 05:43:32;;;;;;;12.30;5.75;;;13.10;99.90;;;;;;4988660;28;20038;-80
2023/07/25 05:45:58;;;;;;;8.75;1.90;;;13.50;99.90;;;;;;5003290;28;20100;-80
2023/07/25 05:48:24;;;;;;;8.30;1.35;;;13.00;99.90;;;;;;5003925;28;20494;-80
2023/07/25 05:50:51;;;;;;;8.18;1.85;;;13.10;99.90;;;;;;5000965;28;20039;-80
2023/07/25 05:53:17;;;;;;;6.70;1.60;;;13.10;99.90;;;;;;5000291;28;20561;-80
2023/07/25 05:55:46;;;;;;;13.48;3.13;;;13.10;99.90;;;;;;5006025;28;20048;-80
2023/07/25 05:58:16;;;;;;;13.52;5.05;;;13.20;99.90;;;;;;5012402;28;20069;-80
2023/07/25 06:00:43;;;;;;;8.57;1.60;;;13.20;99.90;;;;;;5022285;28;20044;-80
2023/07/25 06:03:12;;;;;;;12.85;1.52;;;13.30;99.90;;;;;;5012858;28;20063;-81
2023/07/25 06:05:38;;;;;;;7.88;1.63;;;13.30;99.90;;;;;;5002322;28;20104;-81
2023/07/25 06:08:04;;;;;;;8.50;1.42;;;13.40;99.90;;;;;;5008126;28;20046;-79
2023/07/25 06:10:30;;;;;;;10.10;1.45;;;13.40;99.90;;;;;;5004732;28;20068;-80
2023/07/25 06:12:55;;;;;;;10.10;1.45;;;13.40;99.90;;;;;;5003740;28;20090;-80
2023/07/25 06:15:29;;;;;;;6.28;1.00;;;13.60;99.90;;;;;;5002493;28;20390;-80
2023/07/25 06:17:55;;;;;;;3.55;1.02;;;13.50;99.90;;;;;;4979808;28;20042;-79
2023/07/25 06:20:21;;;;;;;10.05;1.20;;;14.50;99.90;;;;;;5000312;28;20038;-80
2023/07/25 06:22:47;;;;;;;13.15;1.08;;;13.70;99.90;;;;;;5003924;28;20045;-80
2023/07/25 06:25:15;;;;;;;4.75;0.70;;;14.60;99.90;;;;;;5003924;28;20040;-80
2023/07/25 06:27:41;;;;;;;7.22;1.17;;;14.60;99.90;;;;;;5001978;28;20050;-81
2023/07/25 06:30:07;;;;;;;8.13;1.42;;;13.80;99.90;;;;;;5004440;28;20165;-80
2023/07/25 06:32:34;;;;;;;4.07;0.80;;;13.90;99.90;;;;;;4984854;28;20084;-81
2023/07/25 06:35:00;;;;;;;5.05;0.50;;;13.90;99.90;;;;;;4999895;28;20078;-81
2023/07/25 06:37:26;;;;;;;2.85;0.52;;;14.00;99.90;;;;;;5003282;28;20449;-79
2023/07/25 06:39:51;;;;;;;6.32;0.88;;;14.00;99.90;;;;;;4986541;28;20073;-78
2023/07/25 06:42:17;;;;;;;6.63;0.80;;;14.10;99.90;;;;;;5004265;28;20323;-80
2023/07/25 06:44:43;;;;;;;4.20;0.50;;;14.30;99.90;;;;;;5002943;28;20080;-81
2023/07/25 06:47:08;;;;;;;8.38;1.13;;;14.20;99.90;;;;;;4982400;28;20146;-81
2023/07/25 06:49:34;;;;;;;4.13;0.95;;;14.30;99.90;;;;;;5000567;28;20503;-81
2023/07/25 06:52:00;;;;;;;6.80;2.75;;;14.50;99.90;;;;;;5003901;28;20096;-80
2023/07/25 06:54:26;;;;;;;13.80;7.68;;;14.30;99.90;;;;;;4997136;28;20042;-80
2023/07/25 06:56:52;;;;;;;6.90;0.77;;;14.40;99.90;;;;;;5004916;28;20044;-81
2023/07/25 06:59:17;;;;;;;6.40;0.60;;;14.40;99.90;;;;;;5006829;28;20053;-80
2023/07/25 07:01:43;;;;;;;5.70;0.70;;;14.40;99.90;;;;;;5007730;28;20581;-81
2023/07/25 07:04:09;;;;;;;4.90;0.85;;;14.30;99.90;;;;;;5011108;28;20084;-79
2023/07/25 07:06:34;;;;;;;5.68;0.50;;;14.40;99.90;;;;;;5007046;28;20088;-80
2023/07/25 07:09:00;;;;;;;5.30;0.45;;;15.20;99.90;;;;;;5005397;28;20050;-81
2023/07/25 07:11:26;;;;;;;5.32;0.95;;;14.40;99.90;;;;;;5004112;28;20053;-81
2023/07/25 07:13:51;;;;;;;4.50;0.47;;;14.30;99.90;;;;;;5005967;28;20081;-80
2023/07/25 07:16:18;;;;;;;2.55;0.50;;;14.40;99.90;;;;;;5009341;28;20042;-81
2023/07/25 07:18:45;;;;;;;4.18;0.90;;;14.40;99.90;;;;;;4990384;28;20125;-80
2023/07/25 07:21:11;;;;;;;3.75;0.50;;;14.50;99.90;;;;;;4987783;28;20050;-80
2023/07/25 07:23:37;;;;;;;2.67;0.47;;;14.50;99.90;;;;;;4996785;28;20046;-81
2023/07/25 07:26:03;;;;;;;6.22;0.73;;;14.50;99.90;;;;;;4994148;28;20083;-80
2023/07/25 07:28:29;;;;;;;4.97;0.40;;;14.60;99.90;;;;;;5007160;28;20041;-81
2023/07/25 07:30:55;;;;;;;3.55;0.55;;;14.60;99.90;;;;;;5025205;28;20026;-80
2023/07/25 07:33:25;;;;;;;4.43;0.40;;;14.70;99.90;;;;;;4999094;28;20095;-81
2023/07/25 07:35:50;;;;;;;7.05;0.93;;;14.80;99.90;;;;;;5005942;28;20117;-81
2023/07/25 07:38:16;;;;;;;4.95;0.60;;;14.80;99.90;;;;;;5002223;28;20486;-81
2023/07/25 07:40:42;;;;;;;4.13;0.70;;;14.80;99.90;;;;;;4986454;28;20057;-81
2023/07/25 07:43:07;;;;;;;3.30;0.22;;;15.00;99.90;;;;;;4995371;28;20042;-81
2023/07/25 07:45:33;;;;;;;5.47;1.17;;;14.90;99.90;;;;;;5016304;28;20130;-82
2023/07/25 07:48:00;;;;;;;3.90;1.77;;;15.00;99.90;;;;;;5007077;28;20486;-81
2023/07/25 07:50:28;;;;;;;2.65;0.52;;;15.90;99.90;;;;;;5004408;28;20053;-81
2023/07/25 07:52:56;;;;;;;2.15;0.47;;;14.00;99.90;;;;;;4972081;28;20391;-81
2023/07/25 07:55:22;;;;;;;2.53;0.40;;;15.00;99.90;;;;;;5011413;28;20042;-81
2023/07/25 07:57:48;;;;;;;3.03;0.50;;;15.00;99.90;;;;;;4970583;28;20046;-80
2023/07/25 08:00:15;;;;;;;3.35;0.52;;;15.00;99.90;;;;;;5006150;28;20065;-80
2023/07/25 08:02:43;;;;;;;4.22;0.70;;;15.00;99.90;;;;;;5002344;28;20061;-80
2023/07/25 08:05:12;;;;;;;4.20;0.52;;;15.00;99.90;;;;;;5001464;28;20157;-80
2023/07/25 08:07:38;;;;;;;5.65;0.70;;;15.00;99.90;;;;;;5003121;28;20050;-81
2023/07/25 08:10:07;;;;;;;4.88;0.63;;;15.10;99.90;;;;;;5002997;28;20045;-81
2023/07/25 08:12:33;;;;;;;4.68;0.52;;;15.10;99.90;;;;;;5001604;28;20078;-80
2023/07/25 08:14:59;;;;;;;4.25;0.60;;;15.20;99.90;;;;;;5009103;28;20458;-80
2023/07/25 08:17:25;;;;;;;3.55;0.40;;;15.20;99.90;;;;;;4988628;28;20389;-82
2023/07/25 08:19:50;;;;;;;6.57;0.88;;;15.30;99.90;;;;;;5003785;28;20132;-82
2023/07/25 08:22:19;;;;;;;4.05;1.02;;;15.40;99.90;;;;;;5002226;28;20080;-82
2023/07/25 08:24:45;;;;;;;4.38;0.63;;;14.80;99.90;;;;;;4984653;28;20065;-82
2023/07/25 08:27:14;;;;;;;2.00;0.38;;;15.50;99.90;;;;;;5004512;28;20482;-82
2023/07/25 08:29:49;;;;;;;4.43;0.65;;;15.60;99.90;;;;;;4988396;28;20037;-81
2023/07/25 08:32:14;;;;;;;4.32;0.65;;;15.70;99.90;;;;;;5002040;28;20069;-82
2023/07/25 08:34:40;;;;;;;7.15;0.60;;;15.60;99.90;;;;;;4983336;28;20485;-81
2023/07/25 08:37:09;;;;;;;3.30;0.57;;;15.70;99.90;;;;;;5004433;28;20141;-81
2023/07/25 08:39:34;;;;;;;2.22;0.55;;;15.70;99.90;;;;;;5006708;28;20049;-81
2023/07/25 08:42:06;;;;;;;4.35;0.40;;;15.70;99.90;;;;;;5002970;28;20050;-81
2023/07/25 08:44:34;;;;;;;4.45;0.60;;;15.70;99.90;;;;;;5005033;28;20081;-81
2023/07/25 08:47:15;;;;;;;4.57;1.67;;;15.80;99.90;;;;;;5003581;28;20456;-81
2023/07/25 08:49:45;;;;;;;8.75;1.92;;;15.70;99.90;;;;;;5001957;28;20038;-81
2023/07/25 08:52:17;;;;;;;5.60;0.70;;;15.90;99.90;;;;;;4992306;28;20034;-81
2023/07/25 08:54:50;;;;;;;4.53;0.52;;;15.80;99.90;;;;;;5011553;28;20046;-80
2023/07/25 08:57:22;;;;;;;4.38;0.55;;;15.80;99.90;;;;;;5013060;28;20050;-79
2023/07/25 08:59:53;;;;;;;4.72;0.60;;;15.80;99.90;;;;;;5004768;28;20072;-81
2023/07/25 09:02:23;;;;;;;4.32;0.55;;;16.00;99.90;;;;;;5008433;28;20041;-80
2023/07/25 09:04:52;;;;;;;4.45;0.40;;;16.00;99.90;;;;;;4973498;28;20069;-80
2023/07/25 09:07:18;;;;;;;4.88;0.47;;;16.50;99.90;;;;;;4995077;28;20073;-80
2023/07/25 09:09:47;;;;;;;2.60;0.43;;;16.00;99.90;;;;;;5004861;28;20415;-81
2023/07/25 09:12:12;;;;;;;11.02;0.55;;;16.00;99.90;;;;;;4988567;28;20406;-80
2023/07/25 09:14:41;;;;;;;3.83;1.00;;;16.10;99.90;;;;;;5009233;28;20041;-81
2023/07/25 09:17:07;;;;;;;2.78;0.73;;;16.10;99.90;;;;;;5003155;28;20410;-81
2023/07/25 09:19:33;;;;;;;5.63;0.55;;;16.20;99.90;;;;;;4988054;28;20054;-81
2023/07/25 09:21:59;;;;;;;4.80;0.50;;;16.10;99.90;;;;;;5003507;28;20039;-81
2023/07/25 09:24:38;;;;;;;4.43;0.80;;;16.20;99.90;;;;;;4988521;28;20430;-81
2023/07/25 09:27:14;;;;;;;4.93;1.05;;;16.20;99.90;;;;;;5010301;28;20042;-80
2023/07/25 09:29:43;;;;;;;4.40;0.40;;;16.30;99.90;;;;;;5010926;28;20274;-80
2023/07/25 09:32:21;;;;;;;7.70;0.60;;;16.40;99.90;;;;;;4994980;28;20130;-79
2023/07/25 09:34:54;;;;;;;4.90;0.52;;;16.40;99.90;;;;;;5005797;28;20042;-79
2023/07/25 09:37:20;;;;;;;7.32;1.02;;;17.30;99.90;;;;;;4974593;28;20034;-82
2023/07/25 09:39:45;;;;;;;5.88;0.88;;;16.30;99.90;;;;;;5005779;28;20037;-81
2023/07/25 09:42:13;;;;;;;4.47;0.90;;;17.40;99.90;;;;;;4999349;28;20074;-80
2023/07/25 09:44:48;;;;;;;9.20;1.42;;;16.20;99.90;;;;;;5004351;28;20041;-81
2023/07/25 09:47:19;;;;;;;4.35;0.73;;;16.30;99.90;;;;;;5007771;28;20088;-80
2023/07/25 09:49:49;;;;;;;12.85;0.88;;;16.30;99.90;;;;;;5007482;28;20038;-80
2023/07/25 09:52:16;;;;;;;2.97;0.75;;;16.30;99.90;;;;;;5004639;28;20038;-80
2023/07/25 09:54:42;;;;;;;8.05;1.05;;;16.20;99.90;;;;;;4975487;28;20124;-81
2023/07/25 09:57:10;;;;;;;4.53;0.80;;;16.20;99.90;;;;;;5006270;28;20490;-81
2023/07/25 09:59:37;;;;;;;4.28;0.70;;;16.30;99.90;;;;;;5008405;28;20082;-80
2023/07/25 10:02:06;;;;;;;5.88;0.93;;;16.30;99.90;;;;;;5010260;28;20058;-80
2023/07/25 10:04:36;;;;;;;5.60;0.75;;;16.30;99.90;;;;;;5004514;28;20505;-81
2023/07/25 10:07:02;;;;;;;11.10;1.02;;;17.00;99.90;;;;;;5005140;28;20053;-80
2023/07/25 10:09:30;;;;;;;5.28;0.65;;;16.50;99.90;;;;;;4995947;28;20038;-80
2023/07/25 10:11:56;;;;;;;4.93;0.63;;;16.50;99.90;;;;;;5000655;28;20062;-80
2023/07/25 10:14:22;;;;;;;7.70;1.05;;;16.60;99.90;;;;;;5002789;28;20045;-81
2023/07/25 10:16:50;;;;;;;5.10;0.70;;;16.60;99.90;;;;;;4981909;28;20046;-81
2023/07/25 10:19:17;;;;;;;4.25;0.70;;;16.60;99.90;;;;;;5000981;28;20061;-80
2023/07/25 10:21:49;;;;;;;1.65;0.40;;;17.30;99.90;;;;;;4986795;28;20031;-81
2023/07/25 10:24:17;;;;;;;4.72;0.70;;;16.70;99.90;;;;;;4996268;28;20043;-80
2023/07/25 10:26:56;;;;;;;6.03;0.68;;;16.50;99.90;;;;;;5016949;28;20060;-79
2023/07/25 10:29:43;;;;;;;4.70;0.60;;;16.50;99.90;;;;;;5005118;28;20049;-80
2023/07/25 10:32:16;;;;;;;5.95;1.30;;;16.50;99.90;;;;;;5005676;28;20494;-81
2023/07/25 10:35:00;;;;;;;6.85;1.95;;;16.50;99.90;;;;;;5002741;28;20061;-80
2023/07/25 10:37:35;;;;;;;8.20;1.08;;;16.60;99.90;;;;;;5004723;28;20474;-80
2023/07/25 10:40:15;;;;;;;7.28;0.57;;;16.70;99.90;;;;;;4987431;28;20096;-80
2023/07/25 10:42:46;;;;;;;3.95;0.75;;;16.70;99.90;;;;;;4999079;28;20030;-81
2023/07/25 10:45:28;;;;;;;7.82;0.73;;;16.90;99.90;;;;;;5005924;28;20054;-81
2023/07/25 10:47:59;;;;;;;4.05;0.52;;;16.90;99.90;;;;;;5009353;28;20046;-80
2023/07/25 10:50:49;;;;;;;5.00;1.25;;;17.00;99.90;;;;;;4991030;28;20584;-81
2023/07/25 10:53:24;;;;;;;8.20;0.70;;;17.90;99.90;;;;;;5008556;28;20068;-80
2023/07/25 10:56:04;;;;;;;3.97;0.47;;;16.90;99.90;;;;;;5008021;28;20037;-82
2023/07/25 10:58:35;;;;;;;9.57;0.70;;;16.90;99.90;;;;;;5012566;28;20046;-80
2023/07/25 11:01:01;;;;;;;6.47;0.60;;;16.90;99.90;;;;;;4990033;28;20050;-80
2023/07/25 11:03:35;;;;;;;3.85;0.43;;;17.10;99.90;;;;;;4991294;28;20046;-80
2023/07/25 11:06:07;;;;;;;2.13;0.52;;;17.10;99.90;;;;;;5010498;28;20037;-80
2023/07/25 11:08:39;;;;;;;4.10;0.50;;;17.20;99.90;;;;;;5013218;28;20129;-80
2023/07/25 11:11:11;;;;;;;2.80;0.55;;;17.30;99.90;;;;;;5018083;28;20034;-80
2023/07/25 11:13:40;;;;;;;3.13;0.40;;;17.30;99.90;;;;;;4982847;28;20042;-80
2023/07/25 11:16:08;;;;;;;3.35;0.35;;;17.40;99.90;;;;;;5003545;28;20610;-80
2023/07/25 11:18:37;;;;;;;2.17;0.38;;;17.30;99.90;;;;;;5009885;28;20113;-80
2023/07/25 11:21:07;;;;;;;5.95;0.30;;;17.30;99.90;;;;;;5008332;28;20049;-80
2023/07/25 11:23:34;;;;;;;3.47;0.40;;;17.40;99.90;;;;;;5012398;28;20828;-80
2023/07/25 11:26:07;;;;;;;3.33;0.68;;;17.40;99.90;;;;;;4985725;28;20064;-79
2023/07/25 11:28:41;;;;;;;3.53;0.55;;;17.50;99.90;;;;;;4987618;28;20037;-80
2023/07/25 11:31:07;;;;;;;1.02;0.30;;;17.50;99.90;;;;;;5014335;28;20050;-80
2023/07/25 11:33:42;;;;;;;7.55;0.60;;;17.40;99.90;;;;;;5007585;28;20045;-80
2023/07/25 11:36:08;;;;;;;1.55;0.47;;;18.20;99.90;;;;;;4992735;28;20556;-81
2023/07/25 11:38:37;;;;;;;3.72;0.40;;;17.30;99.90;;;;;;5006842;28;20360;-81
2023/07/25 11:41:04;;;;;;;2.60;0.52;;;17.30;99.90;;;;;;4993622;28;20049;-81
2023/07/25 11:43:32;;;;;;;2.70;0.40;;;17.30;99.90;;;;;;5004255;28;20045;-81
2023/07/25 11:45:57;;;;;;;3.80;0.50;;;17.90;99.90;;;;;;5003820;28;20038;-81
2023/07/25 11:48:24;;;;;;;2.65;0.47;;;17.50;99.90;;;;;;5009412;28;20048;-81
2023/07/25 11:50:50;;;;;;;5.22;0.38;;;17.50;99.90;;;;;;5014137;28;20034;-80
2023/07/25 11:53:19;;;;;;;5.15;0.65;;;17.40;99.90;;;;;;5015517;28;20050;-81
2023/07/25 11:55:46;;;;;;;1.58;0.80;;;17.40;99.90;;;;;;5003635;28;20046;-81
2023/07/25 11:58:16;;;;;;;3.15;1.33;;;17.30;99.90;;;;;;5003245;28;20049;-81
2023/07/25 12:00:42;;;;;;;3.70;0.70;;;17.20;99.90;;;;;;4998905;28;20277;-81
2023/07/25 12:03:24;;;;;;;4.28;0.73;;;17.40;99.90;;;;;;4999879;28;20038;-81
2023/07/25 12:05:56;;;;;;;2.13;0.55;;;17.20;99.90;;;;;;5001420;28;20378;-81
2023/07/25 12:08:33;;;;;;;1.42;0.40;;;17.80;99.90;;;;;;5012805;28;20042;-81
2023/07/25 12:11:10;;;;;;;2.35;0.40;;;17.10;99.90;;;;;;5009010;28;20122;-80
2023/07/25 12:13:43;;;;;;;5.05;0.82;;;17.10;99.90;;;;;;5007216;28;20045;-82
2023/07/25 12:16:09;;;;;;;5.13;0.40;;;17.10;99.90;;;;;;4985951;28;20394;-82
2023/07/25 12:18:35;;;;;;;3.42;0.55;;;17.30;99.90;;;;;;4990796;28;20046;-80
2023/07/25 12:21:02;;;;;;;5.85;0.52;;;18.10;99.90;;;;;;5006672;28;20042;-80
2023/07/25 12:23:38;;;;;;;2.60;0.35;;;17.60;99.90;;;;;;5006239;28;20394;-79
2023/07/25 12:26:05;;;;;;;5.43;0.47;;;17.60;99.90;;;;;;4985529;28;20913;-80
2023/07/25 12:28:44;;;;;;;2.55;0.60;;;17.60;99.90;;;;;;5004880;28;20034;-81
2023/07/25 12:31:11;;;;;;;2.05;0.35;;;17.60;99.90;;;;;;4991244;28;20038;-81
2023/07/25 12:33:37;;;;;;;4.70;0.32;;;18.00;99.90;;;;;;4997279;28;20038;-81
2023/07/25 12:36:05;;;;;;;5.20;0.60;;;18.10;99.90;;;;;;5006996;28;20053;-80
2023/07/25 12:38:31;;;;;;;1.63;0.30;;;17.50;99.90;;;;;;5007587;28;20061;-80
2023/07/25 12:40:57;;;;;;;3.50;0.52;;;17.60;99.90;;;;;;5005823;28;20124;-81
2023/07/25 12:43:22;;;;;;;4.57;0.70;;;17.70;99.90;;;;;;4990560;28;20077;-80
2023/07/25 12:46:04;;;;;;;4.20;0.50;;;17.80;99.90;;;;;;4990292;28;20034;-81